Time;durP1;ratioP1;P1;durP2;ratioP2;P2;SDS_P1;SDS_P2;PMS_P1;PMS_P2;Temp;Humidity;BMP_temperature;BMP_pressure;BME280_temperature;BME280_humidity;BME280_pressure;Samples;Min_cycle;Max_cycle;Signal;HPM_P1;HPM_P2
2021/04/09 00:01:13;;;;;;;18.13;9.85;;;-0.60;99.90;;;;;;6126068;23;20402;-89
2021/04/09 00:03:52;;;;;;;19.73;10.00;;;-0.60;99.90;;;;;;6126515;23;20080;-89
2021/04/09 00:06:40;;;;;;;16.88;10.00;;;-0.50;99.90;;;;;;6036402;23;20105;-88
2021/04/09 00:09:16;;;;;;;23.85;10.88;;;-0.40;99.90;;;;;;6013717;23;20024;-89
2021/04/09 00:11:43;;;;;;;15.88;9.15;;;-0.40;99.90;;;;;;6036966;23;20027;-89
2021/04/09 00:14:19;;;;;;;15.02;9.07;;;-0.40;99.90;;;;;;6014629;23;20027;-89
2021/04/09 00:16:58;;;;;;;;;;;;;;;;;;;;;
2021/04/09 00:19:49;;;;;;;16.50;8.50;;;-0.20;99.90;;;;;;6037061;23;20168;-89
2021/04/09 00:22:19;;;;;;;15.27;8.57;;;-0.20;99.90;;;;;;6013824;23;20459;-90
2021/04/09 00:24:46;;;;;;;16.60;9.73;;;-0.20;99.90;;;;;;6036815;23;20030;-90
2021/04/09 00:27:15;;;;;;;14.48;8.60;;;-0.20;99.90;;;;;;6036763;23;20171;-89
2021/04/09 00:29:49;;;;;;;17.88;9.00;;;-0.20;99.90;;;;;;6015353;23;20101;-90
2021/04/09 00:32:20;;;;;;;17.52;8.88;;;-0.30;99.90;;;;;;6124264;23;20101;-90
2021/04/09 00:35:14;;;;;;;17.38;9.18;;;-0.30;99.90;;;;;;6036506;23;20435;-90
2021/04/09 00:37:43;;;;;;;17.77;8.63;;;-0.30;99.90;;;;;;6012784;23;20034;-90
2021/04/09 00:40:19;;;;;;;17.60;9.48;;;-0.40;99.90;;;;;;6013295;23;20106;-90
2021/04/09 00:42:49;;;;;;;13.75;8.95;;;-0.40;99.90;;;;;;6013608;23;20027;-90
2021/04/09 00:45:19;;;;;;;18.85;9.40;;;-0.40;99.90;;;;;;6013512;23;20101;-89
2021/04/09 00:47:46;;;;;;;14.60;8.98;;;-0.40;99.90;;;;;;6013587;23;20042;-90
2021/04/09 00:50:20;;;;;;;16.38;9.25;;;-0.40;99.90;;;;;;6013834;23;20086;-90
2021/04/09 00:52:52;;;;;;;;;;;-0.50;99.90;;;;;;6037224;23;20398;-89
2021/04/09 00:55:26;;;;;;;18.55;9.52;;;-0.50;99.90;;;;;;6013174;23;19918;-90
2021/04/09 00:58:14;;;;;;;16.85;9.23;;;-0.50;99.90;;;;;;6014043;23;20027;-91
2021/04/09 01:00:42;;;;;;;13.38;8.98;;;-0.60;99.90;;;;;;6125613;23;20022;-90
2021/04/09 01:03:27;;;;;;;;;;;;;;;;;;;;;
2021/04/09 01:05:55;;;;;;;18.13;9.48;;;-0.60;99.90;;;;;;6127079;23;20030;-91
2021/04/09 01:08:37;;;;;;;10.67;7.77;;;-0.60;99.90;;;;;;6120871;23;20025;-90
2021/04/09 01:11:13;;;;;;;15.25;8.93;;;-0.50;99.90;;;;;;6126588;23;20249;-91
2021/04/09 01:13:45;;;;;;;16.50;9.48;;;-0.50;99.90;;;;;;6131442;23;20026;-89
2021/04/09 01:16:49;;;;;;;19.45;10.00;;;-0.60;99.90;;;;;;6141341;23;20028;-91
2021/04/09 01:20:16;;;;;;;17.47;10.17;;;-0.60;99.90;;;;;;6102927;23;20018;-90
2021/04/09 01:26:19;;;;;;;23.98;11.82;;;-0.20;99.90;;;;;;6152783;23;20033;-89
2021/04/09 01:29:29;;;;;;;16.13;8.80;;;0.00;99.90;;;;;;6150186;23;20057;-91
2021/04/09 01:32:17;;;;;;;18.40;8.32;;;0.10;99.90;;;;;;6108148;23;20049;-89
2021/04/09 01:35:14;;;;;;;17.33;8.60;;;0.20;99.90;;;;;;6130583;23;20021;-89
2021/04/09 01:37:50;;;;;;;15.55;8.27;;;0.30;99.90;;;;;;6130132;23;20398;-88
2021/04/09 01:40:30;;;;;;;13.15;8.20;;;0.40;99.90;;;;;;6130733;23;20022;-88
2021/04/09 01:43:16;;;;;;;13.48;7.93;;;0.40;99.90;;;;;;6130027;23;20096;-91
2021/04/09 01:45:51;;;;;;;11.05;7.60;;;0.40;99.90;;;;;;6155294;23;20370;-90
2021/04/09 01:48:41;;;;;;;17.77;7.40;;;0.40;99.90;;;;;;6036722;23;20027;-89
2021/04/09 01:51:22;;;;;;;18.95;9.85;;;0.40;99.90;;;;;;6037114;23;20041;-88
2021/04/09 01:53:49;;;;;;;17.95;8.90;;;0.40;99.90;;;;;;6036857;23;20073;-89
2021/04/09 01:56:20;;;;;;;15.82;8.52;;;0.40;99.90;;;;;;6036294;23;20106;-90
2021/04/09 01:58:49;;;;;;;12.30;7.22;;;0.50;99.90;;;;;;6036518;23;20475;-87
2021/04/09 02:01:19;;;;;;;17.60;7.53;;;0.60;99.90;;;;;;6036801;23;20032;-89
2021/04/09 02:03:52;;;;;;;10.70;6.55;;;0.70;99.90;;;;;;6036103;23;20307;-89
2021/04/09 02:06:24;;;;;;;10.57;6.43;;;0.80;99.90;;;;;;6092195;23;20022;-89
2021/04/09 02:08:54;;;;;;;14.30;7.95;;;0.80;99.90;;;;;;6129607;23;20043;-87
2021/04/09 02:11:22;;;;;;;9.65;6.25;;;0.80;99.90;;;;;;6128598;23;20117;-89
2021/04/09 02:13:50;;;;;;;15.65;6.55;;;0.70;99.90;;;;;;6130069;23;20406;-88
2021/04/09 02:16:24;;;;;;;12.00;7.10;;;0.70;99.90;;;;;;6129409;23;20035;-88
2021/04/09 02:18:51;;;;;;;13.18;6.93;;;0.60;99.90;;;;;;6129901;23;20021;-90
2021/04/09 02:21:18;;;;;;;11.57;7.25;;;0.60;99.90;;;;;;6129130;23;20025;-88
2021/04/09 02:23:46;;;;;;;16.65;7.45;;;0.60;99.90;;;;;;6155312;23;20071;-89
2021/04/09 02:26:17;;;;;;;19.50;7.55;;;0.60;99.90;;;;;;6131724;23;20025;-89
2021/04/09 02:28:49;;;;;;;15.75;6.85;;;0.50;99.90;;;;;;6132481;23;20035;-90
2021/04/09 02:31:18;;;;;;;12.43;7.30;;;0.40;99.90;;;;;;6107495;23;20029;-90
2021/04/09 02:33:47;;;;;;;15.50;8.38;;;0.40;99.90;;;;;;6156972;23;20049;-90
2021/04/09 02:36:19;;;;;;;20.55;8.80;;;0.30;99.90;;;;;;6131450;23;20030;-91
2021/04/09 02:38:50;;;;;;;16.73;9.52;;;0.30;99.90;;;;;;6156875;23;20028;-89
2021/04/09 02:41:26;;;;;;;18.88;8.82;;;0.30;99.90;;;;;;6158836;23;20032;-90
2021/04/09 02:43:57;;;;;;;19.42;9.30;;;0.20;99.90;;;;;;6180159;23;20036;-90
2021/04/09 02:46:46;;;;;;;15.48;8.18;;;0.10;99.90;;;;;;6008333;23;20081;-89
2021/04/09 02:49:40;;;;;;;16.02;8.45;;;0.00;99.90;;;;;;6022776;23;20051;-89
2021/04/09 02:52:18;;;;;;;16.13;8.93;;;0.00;99.90;;;;;;6011499;23;20027;-89
2021/04/09 02:54:50;;;;;;;15.52;8.20;;;0.00;99.90;;;;;;5987078;23;20424;-88
2021/04/09 02:57:46;;;;;;;;;;;0.10;99.90;;;;;;6009192;23;20114;-90
2021/04/09 03:00:41;;;;;;;16.20;8.68;;;0.00;99.90;;;;;;5970532;23;19918;-88
2021/04/09 03:03:15;;;;;;;19.00;8.90;;;0.10;99.90;;;;;;6085419;23;20092;-88
2021/04/09 03:05:47;;;;;;;15.98;8.52;;;0.20;99.90;;;;;;6130582;23;20100;-90
2021/04/09 03:08:18;;;;;;;19.20;8.70;;;0.40;99.90;;;;;;6131427;23;20106;-90
2021/04/09 03:10:48;;;;;;;19.92;9.93;;;0.40;99.90;;;;;;6083559;23;20088;-88
2021/04/09 03:13:27;;;;;;;27.02;10.07;;;0.50;99.90;;;;;;6130721;23;20372;-89
2021/04/09 03:16:07;;;;;;;16.40;9.85;;;0.60;99.90;;;;;;6110385;23;20373;-91
2021/04/09 03:18:39;;;;;;;;;;;0.70;99.90;;;;;;6157219;23;20017;-90
2021/04/09 03:21:12;;;;;;;18.92;9.43;;;0.80;99.90;;;;;;6130511;23;19920;-89
2021/04/09 03:23:41;;;;;;;18.10;9.90;;;0.80;99.90;;;;;;6130940;23;20337;-91
2021/04/09 03:26:18;;;;;;;19.33;10.68;;;0.90;99.90;;;;;;6107529;23;20093;-89
2021/04/09 03:28:47;;;;;;;17.92;9.98;;;0.80;99.90;;;;;;6130495;23;20026;-88
2021/04/09 03:31:16;;;;;;;19.25;10.85;;;0.80;99.90;;;;;;6106386;23;20080;-89
2021/04/09 03:33:43;;;;;;;21.00;10.88;;;0.70;99.90;;;;;;6130686;23;20022;-89
2021/04/09 03:36:13;;;;;;;22.92;11.05;;;0.70;99.90;;;;;;6130832;23;20025;-88
2021/04/09 03:38:40;;;;;;;18.38;10.63;;;0.70;99.90;;;;;;6105992;23;20017;-89
2021/04/09 03:41:14;;;;;;;21.75;11.85;;;0.70;99.90;;;;;;6156429;23;20013;-88
2021/04/09 03:43:40;;;;;;;22.70;11.38;;;0.80;99.90;;;;;;6155880;23;20056;-90
2021/04/09 03:46:14;;;;;;;19.40;12.07;;;0.80;99.90;;;;;;6106629;23;20092;-89
2021/04/09 03:48:43;;;;;;;21.48;12.55;;;0.90;99.90;;;;;;6156443;23;20028;-88
2021/04/09 03:51:13;;;;;;;25.00;12.90;;;0.90;99.90;;;;;;6130940;23;20449;-88
2021/04/09 03:53:42;;;;;;;25.10;13.25;;;1.00;99.90;;;;;;6106968;23;20021;-90
2021/04/09 03:56:20;;;;;;;27.38;13.85;;;1.00;99.90;;;;;;6131577;23;20031;-91
2021/04/09 03:58:51;;;;;;;31.20;15.02;;;1.00;99.90;;;;;;6109975;23;20022;-89
2021/04/09 04:01:18;;;;;;;31.42;14.68;;;1.00;99.90;;;;;;6157079;23;20028;-89
2021/04/09 04:03:47;;;;;;;27.35;15.60;;;0.90;99.90;;;;;;6133280;23;20065;-88
2021/04/09 04:06:20;;;;;;;28.73;13.63;;;0.90;99.90;;;;;;6157915;23;20048;-89
2021/04/09 04:08:47;;;;;;;20.77;12.13;;;0.80;99.90;;;;;;6109761;23;20044;-90
2021/04/09 04:11:16;;;;;;;23.45;12.27;;;0.80;99.90;;;;;;6131082;23;20029;-88
2021/04/09 04:13:44;;;;;;;22.15;12.55;;;0.80;99.90;;;;;;6140218;23;20075;-89
2021/04/09 04:16:13;;;;;;;19.58;12.45;;;0.80;99.90;;;;;;6172146;23;20022;-89
2021/04/09 04:18:41;;;;;;;24.00;12.00;;;0.80;99.90;;;;;;6173349;23;20109;-90
2021/04/09 04:21:14;;;;;;;23.90;12.85;;;0.80;99.90;;;;;;6124315;23;20022;-88
2021/04/09 04:23:41;;;;;;;24.88;12.38;;;0.80;99.90;;;;;;6134231;23;20225;-92
2021/04/09 04:26:33;;;;;;;21.65;11.98;;;0.80;99.90;;;;;;6124525;23;20029;-90
2021/04/09 04:29:20;;;;;;;21.05;12.73;;;0.70;99.90;;;;;;6117558;23;20096;-89
2021/04/09 04:31:51;;;;;;;26.00;13.15;;;0.60;99.90;;;;;;6084897;23;20026;-90
2021/04/09 04:34:18;;;;;;;23.60;13.20;;;0.60;99.90;;;;;;6127881;23;20022;-88
2021/04/09 04:36:48;;;;;;;20.65;12.02;;;0.70;99.90;;;;;;6127250;23;20018;-88
2021/04/09 04:39:15;;;;;;;19.83;11.60;;;0.80;99.90;;;;;;6057524;23;20029;-90
2021/04/09 04:41:44;;;;;;;25.17;12.88;;;0.90;99.90;;;;;;6102929;23;20077;-92
2021/04/09 04:44:16;;;;;;;27.40;12.27;;;1.10;99.90;;;;;;6127521;23;20041;-88
2021/04/09 04:46:45;;;;;;;22.05;11.75;;;1.20;99.90;;;;;;6125619;23;20032;-86
2021/04/09 04:49:15;;;;;;;21.23;11.13;;;1.20;99.90;;;;;;6098865;23;20018;-86
2021/04/09 04:51:42;;;;;;;20.15;10.80;;;1.20;99.90;;;;;;6099050;23;20358;-86
2021/04/09 04:54:08;;;;;;;21.38;10.73;;;1.30;99.90;;;;;;6099695;23;20021;-86
2021/04/09 04:56:35;;;;;;;16.63;9.88;;;1.20;99.90;;;;;;6125496;23;20022;-85
2021/04/09 04:59:12;;;;;;;;;;;;;;;;;;;;;
2021/04/09 05:01:41;;;;;;;21.08;10.27;;;1.20;99.90;;;;;;6124803;23;20397;-86
2021/04/09 05:04:07;;;;;;;18.40;9.25;;;1.20;99.90;;;;;;6076577;23;20029;-85
2021/04/09 05:06:34;;;;;;;18.50;8.15;;;1.30;99.90;;;;;;6124199;23;20092;-86
2021/04/09 05:09:00;;;;;;;17.38;8.45;;;1.30;99.90;;;;;;6100024;23;20026;-85
2021/04/09 05:11:42;;;;;;;20.80;9.13;;;1.40;99.90;;;;;;6100668;23;20022;-85
2021/04/09 05:14:09;;;;;;;16.10;8.25;;;1.40;99.90;;;;;;6123915;23;20026;-87
2021/04/09 05:16:38;;;;;;;14.95;7.60;;;1.50;99.90;;;;;;6099909;23;20025;-89
2021/04/09 05:19:05;;;;;;;17.17;8.55;;;1.60;99.90;;;;;;6100281;23;20418;-88
2021/04/09 05:21:32;;;;;;;15.88;7.13;;;1.70;99.90;;;;;;6126103;23;20029;-89
2021/04/09 05:24:01;;;;;;;14.18;8.30;;;1.70;99.90;;;;;;6076941;23;20022;-90
2021/04/09 05:27:19;;;;;;;14.55;8.05;;;1.70;99.90;;;;;;5948299;24;20474;-89
2021/04/09 05:29:45;;;;;;;17.52;8.65;;;1.70;99.90;;;;;;5934996;24;20106;-88
2021/04/09 05:32:47;;;;;;;17.00;8.35;;;1.70;99.90;;;;;;5980813;23;20043;-91
2021/04/09 05:35:44;;;;;;;12.57;7.28;;;1.80;99.90;;;;;;5883131;24;20094;-92
2021/04/09 05:38:36;;;;;;;13.55;7.22;;;1.90;99.90;;;;;;5845061;24;20373;-92
2021/04/09 05:42:13;;;;;;;16.25;8.00;;;2.00;99.90;;;;;;5791454;24;20113;-88
2021/04/09 05:44:35;;;;;;;;;;;;;;;;;;;;;
2021/04/09 05:47:49;;;;;;;;;;;;;;;;;;;;;
2021/04/09 05:50:23;;;;;;;14.02;7.10;;;2.50;99.90;;;;;;5754486;24;20053;-93
2021/04/09 05:57:46;;;;;;;12.95;6.85;;;2.90;99.50;;;;;;5769819;24;20028;-91
2021/04/09 06:01:17;;;;;;;11.10;6.43;;;3.10;97.60;;;;;;5845544;24;20492;-92
2021/04/09 06:03:46;;;;;;;13.27;6.53;;;3.40;95.70;;;;;;5797139;24;20029;-85
2021/04/09 06:09:33;;;;;;;12.73;6.50;;;3.60;95.00;;;;;;5800148;24;20031;-86
2021/04/09 06:12:09;;;;;;;12.68;7.00;;;3.70;94.20;;;;;;5844587;24;20391;-87
2021/04/09 06:14:41;;;;;;;19.10;7.53;;;3.80;94.20;;;;;;5876795;24;20329;-88
2021/04/09 06:17:15;;;;;;;12.00;6.82;;;3.90;94.50;;;;;;5910459;24;20042;-88
2021/04/09 06:19:47;;;;;;;18.33;7.55;;;3.90;92.90;;;;;;5981706;23;20020;-86
2021/04/09 06:23:24;;;;;;;;;;;;;;;;;;;;;
2021/04/09 06:26:32;;;;;;;;;;;;;;;;;;;;;
2021/04/09 06:29:42;;;;;;;14.57;6.65;;;4.50;89.80;;;;;;5874056;24;20033;-90
2021/04/09 06:32:54;;;;;;;11.20;6.10;;;4.90;88.60;;;;;;5899935;24;20033;-90
2021/04/09 06:35:56;;;;;;;;;;;;;;;;;;;;;
2021/04/09 06:44:14;;;;;;;10.90;5.63;;;6.10;78.00;;;;;;6166909;23;20025;-91
2021/04/09 06:46:45;;;;;;;10.45;6.60;;;6.40;77.20;;;;;;6158653;23;20052;-89
2021/04/09 06:53:08;;;;;;;11.10;6.13;;;7.10;73.50;;;;;;5925606;23;20028;-92
2021/04/09 06:55:38;;;;;;;10.10;6.28;;;7.20;73.00;;;;;;6009481;23;20404;-89
2021/04/09 06:58:40;;;;;;;13.00;6.50;;;7.10;73.10;;;;;;6092602;23;20081;-88
2021/04/09 07:01:28;;;;;;;11.07;5.88;;;6.90;73.00;;;;;;6018606;23;20273;-89
2021/04/09 07:04:06;;;;;;;8.13;5.40;;;6.90;72.10;;;;;;6014305;23;20023;-90
2021/04/09 07:06:47;;;;;;;;;;;;;;;;;;;;;
2021/04/09 07:13:10;;;;;;;12.10;6.28;;;7.70;66.50;;;;;;6023593;23;20335;-88
2021/04/09 07:15:45;;;;;;;11.48;5.80;;;7.90;70.60;;;;;;6037867;23;20031;-88
2021/04/09 07:18:26;;;;;;;;;;;;;;;;;;;;;
2021/04/09 07:21:22;;;;;;;7.95;5.05;;;8.40;66.60;;;;;;6157057;23;20021;-86
2021/04/09 07:23:50;;;;;;;7.00;4.88;;;8.60;64.80;;;;;;6156487;23;20033;-88
2021/04/09 07:27:06;;;;;;;7.38;4.72;;;8.20;63.80;;;;;;6155795;23;20078;-88
2021/04/09 07:30:27;;;;;;;10.70;4.13;;;8.00;62.30;;;;;;6135224;23;20104;-88
2021/04/09 07:33:17;;;;;;;8.30;4.50;;;7.90;61.80;;;;;;6130444;23;20033;-87
2021/04/09 07:35:55;;;;;;;11.95;4.15;;;7.80;61.40;;;;;;6130535;23;20393;-88
2021/04/09 07:38:43;;;;;;;7.63;4.13;;;7.90;62.10;;;;;;6155674;23;20014;-89
2021/04/09 07:41:10;;;;;;;7.05;4.25;;;8.00;59.90;;;;;;6130659;23;20084;-89
2021/04/09 07:44:02;;;;;;;;;;;;;;;;;;;;;
2021/04/09 07:47:14;;;;;;;5.90;3.95;;;8.10;58.80;;;;;;6143063;23;20061;-87
2021/04/09 07:49:42;;;;;;;7.53;4.10;;;8.00;57.60;;;;;;6120342;23;20018;-87
2021/04/09 07:52:18;;;;;;;7.85;4.10;;;8.00;57.80;;;;;;6146835;23;20009;-86
2021/04/09 07:55:28;;;;;;;7.75;3.95;;;8.10;58.50;;;;;;6055026;23;20047;-85
2021/04/09 08:00:50;;;;;;;6.97;3.88;;;8.30;57.20;;;;;;6158534;23;20045;-87
2021/04/09 08:03:45;;;;;;;10.35;4.10;;;8.40;57.00;;;;;;6130856;23;20017;-89
2021/04/09 08:06:36;;;;;;;6.65;3.50;;;8.40;56.70;;;;;;6130830;23;20057;-90
2021/04/09 08:09:20;;;;;;;8.88;3.90;;;8.60;56.70;;;;;;6066301;23;20039;-91
2021/04/09 08:11:58;;;;;;;5.78;3.70;;;8.70;56.40;;;;;;6132517;23;20049;-90
2021/04/09 08:14:35;;;;;;;8.75;4.32;;;8.80;56.70;;;;;;6108755;23;20112;-92
2021/04/09 08:17:21;;;;;;;;;;;;;;;;;;;;;
2021/04/09 08:19:55;;;;;;;7.15;4.45;;;8.90;56.50;;;;;;6157499;23;20266;-90
2021/04/09 08:22:54;;;;;;;6.70;4.10;;;8.60;56.30;;;;;;6154766;23;20030;-91
2021/04/09 08:25:55;;;;;;;7.50;3.95;;;8.60;57.10;;;;;;6104704;23;20053;-92
2021/04/09 08:28:43;;;;;;;6.85;4.18;;;8.60;57.10;;;;;;6156352;23;20026;-91
2021/04/09 08:31:54;;;;;;;;;;;;;;;;;;;;;
2021/04/09 08:34:31;;;;;;;7.43;4.00;;;8.10;57.70;;;;;;6156292;23;20017;-90
2021/04/09 08:37:21;;;;;;;8.40;4.32;;;8.10;58.50;;;;;;6130695;23;20064;-88
2021/04/09 08:39:48;;;;;;;6.82;4.40;;;8.10;58.80;;;;;;6157472;23;20045;-90
2021/04/09 08:42:16;;;;;;;6.70;4.25;;;8.00;58.70;;;;;;6128797;23;20125;-88
2021/04/09 08:44:46;;;;;;;10.35;4.38;;;8.00;60.00;;;;;;6107356;23;20136;-89
2021/04/09 08:47:24;;;;;;;10.15;4.60;;;8.10;59.40;;;;;;6130306;23;20137;-89
2021/04/09 08:50:22;;;;;;;8.43;4.15;;;8.20;58.80;;;;;;6131381;23;20021;-89
2021/04/09 08:53:09;;;;;;;10.18;4.35;;;8.20;58.80;;;;;;6111618;23;20033;-89
2021/04/09 08:55:49;;;;;;;;;;;;;;;;;;;;;
2021/04/09 08:59:18;;;;;;;;;;;;;;;;;;;;;
2021/04/09 09:02:19;;;;;;;10.65;4.05;;;8.40;58.70;;;;;;6155025;23;20036;-88
2021/04/09 09:08:53;;;;;;;;;;;;;;;;;;;;;
2021/04/09 09:12:24;;;;;;;7.60;3.75;;;8.60;57.50;;;;;;6036867;23;20031;-90
2021/04/09 09:15:36;;;;;;;6.90;4.13;;;8.70;56.80;;;;;;6037041;23;20015;-90
2021/04/09 09:18:37;;;;;;;8.32;3.95;;;8.80;56.50;;;;;;6059055;23;20042;-90
2021/04/09 09:24:29;;;;;;;11.65;3.72;;;9.10;55.70;;;;;;6037155;23;20466;-87
2021/04/09 09:27:10;;;;;;;;;;;9.30;55.60;;;;;;6014948;23;20099;-88
2021/04/09 09:30:01;;;;;;;5.22;3.38;;;9.50;55.10;;;;;;6109925;23;19971;-89
2021/04/09 09:32:48;;;;;;;7.63;3.58;;;9.70;54.10;;;;;;6132638;23;20109;-88
2021/04/09 09:35:54;;;;;;;11.30;4.30;;;9.80;53.70;;;;;;6157189;23;20017;-86
2021/04/09 09:38:46;;;;;;;6.57;3.70;;;9.90;53.60;;;;;;6131178;23;20101;-87
2021/04/09 09:41:35;;;;;;;6.97;3.83;;;9.90;52.80;;;;;;6110187;23;20029;-88
2021/04/09 09:44:49;;;;;;;5.30;3.50;;;10.10;53.70;;;;;;6134437;23;20024;-88
2021/04/09 09:47:44;;;;;;;8.43;3.58;;;10.50;53.30;;;;;;6156870;23;20043;-87
2021/04/09 09:50:27;;;;;;;9.85;3.92;;;10.60;51.80;;;;;;6131326;23;20297;-87
2021/04/09 09:53:06;;;;;;;5.47;3.70;;;10.70;51.50;;;;;;6130772;23;20157;-88
2021/04/09 09:55:36;;;;;;;6.20;3.63;;;10.60;51.10;;;;;;6157698;23;20026;-90
2021/04/09 09:58:25;;;;;;;9.98;4.13;;;10.70;51.60;;;;;;6131283;23;20087;-92
2021/04/09 10:01:13;;;;;;;7.38;3.63;;;11.00;51.10;;;;;;6115101;23;20254;-87
2021/04/09 10:03:41;;;;;;;10.35;3.50;;;11.40;51.00;;;;;;6131763;23;20021;-86
2021/04/09 10:06:45;;;;;;;;;;;;;;;;;;;;;
2021/04/09 10:09:54;;;;;;;5.57;3.88;;;11.30;50.70;;;;;;6154619;23;20321;-87
2021/04/09 10:12:53;;;;;;;10.38;3.90;;;11.10;51.00;;;;;;6139585;23;20084;-88
2021/04/09 10:15:27;;;;;;;5.60;3.58;;;11.30;51.40;;;;;;6131162;23;20041;-85
2021/04/09 10:18:31;;;;;;;6.53;3.45;;;11.50;51.50;;;;;;6131032;23;20045;-85
2021/04/09 10:21:20;;;;;;;6.80;3.38;;;11.70;50.10;;;;;;6148517;23;20034;-86
2021/04/09 10:23:51;;;;;;;7.15;3.67;;;11.60;50.20;;;;;;6153756;23;20053;-85
2021/04/09 10:26:23;;;;;;;12.73;3.72;;;11.80;50.30;;;;;;6143435;23;20037;-85
2021/04/09 10:28:50;;;;;;;10.30;4.05;;;11.80;50.20;;;;;;6139337;23;20093;-86
2021/04/09 10:31:19;;;;;;;8.07;3.80;;;12.00;50.00;;;;;;6131554;23;20072;-87
2021/04/09 10:33:51;;;;;;;9.00;4.00;;;12.10;50.80;;;;;;6131361;23;20463;-87
2021/04/09 10:36:23;;;;;;;8.75;4.07;;;12.20;50.20;;;;;;6130825;23;20021;-87
2021/04/09 10:38:58;;;;;;;9.82;3.60;;;12.20;49.70;;;;;;6130320;23;20301;-85
2021/04/09 10:41:28;;;;;;;6.53;3.88;;;12.00;49.80;;;;;;6129945;23;20121;-87
2021/04/09 10:44:03;;;;;;;8.55;4.10;;;12.10;50.00;;;;;;6130715;23;20112;-86
2021/04/09 10:46:39;;;;;;;6.82;3.53;;;12.10;50.30;;;;;;6130679;23;20037;-87
2021/04/09 10:49:17;;;;;;;5.05;3.63;;;12.20;51.00;;;;;;6130831;23;20089;-87
2021/04/09 10:51:50;;;;;;;8.52;4.15;;;12.40;50.50;;;;;;6129784;23;20044;-86
2021/04/09 10:54:24;;;;;;;9.38;5.05;;;12.40;49.30;;;;;;6130541;23;20109;-86
2021/04/09 10:57:03;;;;;;;9.40;4.40;;;12.30;49.10;;;;;;6128229;23;20025;-84
2021/04/09 10:59:45;;;;;;;10.75;4.10;;;12.30;50.00;;;;;;6154769;23;20045;-86
2021/04/09 11:02:24;;;;;;;8.32;3.65;;;12.40;49.30;;;;;;6131244;23;20431;-86
2021/04/09 11:04:58;;;;;;;9.33;3.60;;;12.40;47.50;;;;;;6156400;23;20065;-84
2021/04/09 11:07:47;;;;;;;5.88;3.03;;;12.30;48.10;;;;;;6156490;23;20364;-85
2021/04/09 11:10:34;;;;;;;5.45;3.30;;;12.40;48.00;;;;;;6155799;23;20021;-87
2021/04/09 11:13:55;;;;;;;;;;;;;;;;;;;;;
2021/04/09 11:17:13;;;;;;;4.45;2.70;;;13.10;45.10;;;;;;6149985;23;20091;-89
2021/04/09 11:19:40;;;;;;;4.40;2.63;;;13.30;44.10;;;;;;6115742;23;20025;-86
2021/04/09 11:22:16;;;;;;;5.68;2.25;;;13.20;43.30;;;;;;6130252;23;20025;-90
2021/04/09 11:24:53;;;;;;;;;;;;;;;;;;;;;
2021/04/09 11:27:22;;;;;;;5.60;2.40;;;13.40;42.90;;;;;;6156948;23;20017;-87
2021/04/09 11:30:14;;;;;;;4.68;2.08;;;13.70;42.40;;;;;;6130289;23;20021;-87
2021/04/09 11:33:16;;;;;;;4.43;2.55;;;13.80;40.90;;;;;;5989747;23;20508;-90
2021/04/09 11:36:14;;;;;;;4.05;2.20;;;13.90;39.70;;;;;;6010930;23;20024;-90
2021/04/09 11:39:49;;;;;;;;;;;;;;;;;;;;;
2021/04/09 11:43:05;;;;;;;;;;;;;;;;;;;;;
2021/04/09 11:45:54;;;;;;;3.70;1.90;;;15.80;38.30;;;;;;5820744;24;20090;-89
2021/04/09 11:48:52;;;;;;;;;;;;;;;;;;;;;
2021/04/09 11:58:35;;;;;;;;;;;;;;;;;;;;;
2021/04/09 12:05:10;;;;;;;4.05;1.63;;;19.30;30.30;;;;;;5861166;24;20435;-91
2021/04/09 12:08:42;;;;;;;;;;;;;;;;;;;;;
2021/04/09 12:12:29;;;;;;;;;;;;;;;;;;;;;
2021/04/09 12:15:56;;;;;;;;;;;;;;;;;;;;;
2021/04/09 12:19:18;;;;;;;3.80;1.70;;;18.70;29.30;;;;;;5803541;24;20099;-92
2021/04/09 12:22:16;;;;;;;3.65;1.95;;;17.90;31.40;;;;;;5773581;24;20281;-90
2021/04/09 12:24:46;;;;;;;5.35;1.75;;;17.80;31.30;;;;;;5869446;24;20037;-88
2021/04/09 12:27:41;;;;;;;5.78;1.77;;;17.40;32.10;;;;;;5872627;24;20026;-89
2021/04/09 12:30:11;;;;;;;4.47;1.93;;;17.50;32.40;;;;;;5965441;24;20398;-91
2021/04/09 12:33:03;;;;;;;7.00;1.90;;;17.20;31.70;;;;;;5856640;24;20030;-89
2021/04/09 12:35:34;;;;;;;14.93;5.95;;;17.40;32.10;;;;;;5848663;24;20040;-89
2021/04/09 12:38:37;;;;;;;5.03;2.60;;;17.50;31.10;;;;;;5870048;24;20033;-87
2021/04/09 12:41:18;;;;;;;3.63;2.20;;;18.70;30.60;;;;;;5925184;24;20112;-89
2021/04/09 12:43:45;;;;;;;3.40;1.70;;;19.00;29.30;;;;;;5931966;24;20044;-87
2021/04/09 12:46:16;;;;;;;4.55;1.80;;;18.40;29.80;;;;;;5939148;24;20179;-90
2021/04/09 12:48:42;;;;;;;5.53;2.30;;;18.00;32.00;;;;;;5980976;24;20028;-88
2021/04/09 12:51:15;;;;;;;2.97;1.77;;;18.00;30.90;;;;;;6097295;23;20021;-91
2021/04/09 12:53:43;;;;;;;5.78;1.80;;;17.80;31.60;;;;;;6174682;23;20013;-84
2021/04/09 12:56:14;;;;;;;3.30;1.70;;;17.90;32.10;;;;;;6123357;23;20033;-89
2021/04/09 12:58:42;;;;;;;2.90;1.85;;;17.70;31.90;;;;;;6138003;23;20089;-87
2021/04/09 13:01:34;;;;;;;3.03;1.73;;;17.40;31.80;;;;;;6133481;23;20017;-88
2021/04/09 13:04:11;;;;;;;;;;;;;;;;;;;;;
2021/04/09 13:06:45;;;;;;;8.00;2.05;;;17.00;31.90;;;;;;6131801;23;20045;-88
2021/04/09 13:09:22;;;;;;;6.22;2.47;;;16.60;32.10;;;;;;6129990;23;20037;-86
2021/04/09 13:12:09;;;;;;;3.17;1.65;;;16.10;32.20;;;;;;6106618;23;20052;-88
2021/04/09 13:14:36;;;;;;;5.47;1.95;;;15.70;31.30;;;;;;6155772;23;20044;-89
2021/04/09 13:17:06;;;;;;;7.40;3.17;;;15.40;32.30;;;;;;6129618;23;20029;-89
2021/04/09 13:19:50;;;;;;;3.80;1.77;;;15.40;32.60;;;;;;6129788;23;20040;-90
2021/04/09 13:22:39;;;;;;;;;;;;;;;;;;;;;
2021/04/09 13:25:14;;;;;;;4.03;1.55;;;16.00;32.60;;;;;;6156155;23;20013;-89
2021/04/09 13:27:42;;;;;;;5.05;2.00;;;16.00;30.50;;;;;;6130412;23;20355;-88
2021/04/09 13:30:18;;;;;;;4.53;2.50;;;15.80;30.60;;;;;;6130769;23;20302;-87
2021/04/09 13:32:47;;;;;;;6.60;2.13;;;16.00;30.60;;;;;;6130226;23;20084;-86
2021/04/09 13:35:14;;;;;;;3.85;1.50;;;16.00;30.70;;;;;;6107924;23;20092;-85
2021/04/09 13:37:42;;;;;;;5.22;1.80;;;16.70;29.90;;;;;;6130760;23;20027;-86
2021/04/09 13:40:17;;;;;;;3.15;1.52;;;17.10;30.00;;;;;;6128922;23;20096;-87
2021/04/09 13:42:45;;;;;;;5.22;1.75;;;17.50;29.00;;;;;;6129463;23;20501;-87
2021/04/09 13:45:19;;;;;;;4.22;2.00;;;17.90;28.10;;;;;;6102907;23;20109;-85
2021/04/09 13:48:11;;;;;;;5.07;2.13;;;17.80;28.20;;;;;;6133354;23;20028;-88
2021/04/09 13:50:38;;;;;;;4.88;1.70;;;17.50;29.30;;;;;;6105547;23;20022;-87
2021/04/09 13:53:23;;;;;;;2.55;1.80;;;16.90;30.20;;;;;;6129162;23;20033;-87
2021/04/09 13:55:56;;;;;;;6.30;1.75;;;16.80;30.90;;;;;;6130172;23;20096;-88
2021/04/09 13:58:23;;;;;;;4.72;1.63;;;16.80;30.40;;;;;;6105791;23;20043;-87
2021/04/09 14:00:50;;;;;;;3.20;1.48;;;16.80;30.50;;;;;;6155028;23;20009;-88
2021/04/09 14:03:18;;;;;;;2.70;1.40;;;17.40;30.50;;;;;;6154452;23;20022;-89
2021/04/09 14:05:46;;;;;;;4.85;1.85;;;18.10;29.80;;;;;;6082532;23;20328;-90
2021/04/09 14:08:21;;;;;;;8.88;1.73;;;18.50;29.00;;;;;;6129848;23;20357;-89
2021/04/09 14:10:48;;;;;;;3.42;1.27;;;19.00;28.40;;;;;;6106221;23;20021;-89
2021/04/09 14:13:31;;;;;;;4.35;1.42;;;19.30;28.20;;;;;;6129779;23;20025;-88
2021/04/09 14:16:14;;;;;;;4.97;2.13;;;18.90;28.20;;;;;;6129807;23;20108;-88
2021/04/09 14:18:47;;;;;;;4.05;1.63;;;18.00;29.50;;;;;;6129485;23;20104;-88
2021/04/09 14:21:13;;;;;;;4.95;1.70;;;17.70;29.60;;;;;;6129933;23;20013;-87
2021/04/09 14:23:41;;;;;;;5.72;2.13;;;17.70;29.50;;;;;;6131392;23;20322;-87
2021/04/09 14:26:13;;;;;;;5.80;1.75;;;17.90;30.20;;;;;;6130785;23;20105;-90
2021/04/09 14:28:41;;;;;;;5.95;1.50;;;18.00;29.70;;;;;;6156661;23;20026;-86
2021/04/09 14:31:17;;;;;;;4.03;1.90;;;18.00;29.60;;;;;;6156701;23;20029;-85
2021/04/09 14:33:46;;;;;;;3.25;1.67;;;17.20;29.80;;;;;;6130028;23;20101;-85
2021/04/09 14:36:22;;;;;;;3.80;2.08;;;16.80;31.50;;;;;;6156162;23;20025;-85
2021/04/09 14:38:48;;;;;;;8.07;2.28;;;16.20;31.80;;;;;;6129483;23;20372;-84
2021/04/09 14:41:18;;;;;;;3.65;2.10;;;16.10;32.40;;;;;;6129434;23;20079;-84
2021/04/09 14:43:44;;;;;;;6.53;1.80;;;15.70;33.10;;;;;;6129794;23;20033;-85
2021/04/09 14:46:11;;;;;;;3.78;1.70;;;15.70;33.60;;;;;;6129500;23;20056;-83
2021/04/09 14:48:38;;;;;;;2.42;1.67;;;15.50;33.60;;;;;;6155000;23;20092;-83
2021/04/09 14:51:13;;;;;;;6.90;1.80;;;15.20;34.20;;;;;;6155724;23;20391;-83
2021/04/09 14:53:40;;;;;;;4.57;1.90;;;15.20;34.90;;;;;;6130230;23;20014;-83
2021/04/09 14:56:23;;;;;;;6.07;2.00;;;15.30;34.90;;;;;;6155267;23;20345;-83
2021/04/09 14:58:59;;;;;;;7.13;2.10;;;15.60;34.70;;;;;;6129811;23;20048;-83
2021/04/09 15:01:40;;;;;;;5.88;1.85;;;15.80;34.40;;;;;;6130845;23;20017;-85
2021/04/09 15:04:22;;;;;;;9.38;1.95;;;16.10;34.40;;;;;;6155259;23;20013;-86
2021/04/09 15:07:13;;;;;;;5.75;2.45;;;16.00;34.70;;;;;;6130683;23;20425;-86
2021/04/09 15:09:51;;;;;;;5.32;1.92;;;16.60;34.40;;;;;;6108605;23;20025;-87
2021/04/09 15:12:19;;;;;;;5.93;2.05;;;17.00;33.60;;;;;;6105177;23;20025;-89
2021/04/09 15:14:45;;;;;;;3.83;1.60;;;16.90;32.30;;;;;;6128190;23;20086;-87